Time;durP1;ratioP1;P1;durP2;ratioP2;P2;SDS_P1;SDS_P2;PMS_P1;PMS_P2;Temp;Humidity;BMP_temperature;BMP_pressure;BME280_temperature;BME280_humidity;BME280_pressure;Samples;Min_cycle;Max_cycle;Signal;HPM_P1;HPM_P2
2021/11/24 00:00:59;;;;;;;;;;;;;;;10.03;100.00;100158.19;5072748;28;19960;-76
2021/11/24 00:03:27;;;;;;;;;;;;;;;10.44;100.00;100145.56;5088050;28;19932;-76
2021/11/24 00:05:55;;;;;;;;;;;;;;;9.99;100.00;100141.44;5072964;28;20353;-76
2021/11/24 00:08:22;;;;;;;;;;;;;;;10.04;100.00;100131.88;5072471;28;19925;-76
2021/11/24 00:10:49;;;;;;;;;;;;;;;10.48;100.00;100135.22;5054816;28;19925;-76
2021/11/24 00:13:16;;;;;;;;;;;;;;;10.15;100.00;100118.75;5038258;28;19930;-76
2021/11/24 00:15:43;;;;;;;;;;;;;;;10.19;100.00;100125.19;5054967;28;20338;-76
2021/11/24 00:18:10;;;;;;;;;;;;;;;10.23;100.00;100120.38;5072597;28;19928;-76
2021/11/24 00:20:37;;;;;;;;;;;;;;;10.38;100.00;100113.63;5072573;28;19924;-76
2021/11/24 00:23:04;;;;;;;;;;;;;;;10.43;100.00;100105.66;5072290;28;20058;-76
2021/11/24 00:25:31;;;;;;;;;;;;;;;10.34;100.00;100113.66;5088118;28;19928;-76
2021/11/24 00:27:58;;;;;;;;;;;;;;;9.84;100.00;100089.56;5072542;28;19936;-76
2021/11/24 00:30:25;;;;;;;;;;;;;;;10.22;100.00;100100.03;5037974;28;19931;-76
2021/11/24 00:32:54;;;;;;;;;;;;;;;10.59;100.00;100086.50;5054637;28;19924;-76
2021/11/24 00:35:21;;;;;;;;;;;;;;;10.13;100.00;100099.59;5054669;28;19928;-76
2021/11/24 00:37:49;;;;;;;;;;;;;;;10.40;100.00;100095.28;5053944;28;19924;-76
2021/11/24 00:40:16;;;;;;;;;;;;;;;10.43;100.00;100093.69;5072460;28;19924;-76
2021/11/24 00:42:43;;;;;;;;;;;;;;;10.28;100.00;100078.91;5072441;28;19954;-76
2021/11/24 00:45:10;;;;;;;;;;;;;;;10.12;100.00;100081.28;5054406;28;20436;-76
2021/11/24 00:47:37;;;;;;;;;;;;;;;9.86;100.00;100080.78;5072752;28;20323;-76
2021/11/24 00:50:05;;;;;;;;;;;;;;;10.27;100.00;100065.34;5076047;28;19924;-76
2021/11/24 00:52:32;;;;;;;;;;;;;;;9.86;100.00;100073.19;5075886;28;19929;-76
2021/11/24 00:54:59;;;;;;;;;;;;;;;10.23;100.00;100072.91;5075918;28;20307;-76
2021/11/24 00:57:26;;;;;;;;;;;;;;;9.96;100.00;100086.41;5057875;28;20364;-76
2021/11/24 00:59:53;;;;;;;;;;;;;;;10.12;100.00;100088.84;5075841;28;19928;-76
2021/11/24 01:02:20;;;;;;;;;;;;;;;9.99;100.00;100062.47;5075872;28;20393;-76
2021/11/24 01:04:47;;;;;;;;;;;;;;;10.10;100.00;100077.28;5075804;28;19924;-76
2021/11/24 01:07:14;;;;;;;;;;;;;;;10.54;100.00;100064.53;5075541;28;19929;-77
2021/11/24 01:10:07;;;;;;;;;;;;;;;9.76;100.00;100060.00;5057778;28;19989;-76
2021/11/24 01:12:35;;;;;;;;;;;;;;;10.23;100.00;100061.72;5074476;28;19931;-76
2021/11/24 01:15:03;;;;;;;;;;;;;;;10.34;100.00;100056.97;5075638;28;19925;-76
2021/11/24 01:17:30;;;;;;;;;;;;;;;9.81;100.00;100050.47;5074434;28;19931;-76
2021/11/24 01:19:57;;;;;;;;;;;;;;;9.50;100.00;100067.88;5075204;28;19924;-76
2021/11/24 01:22:25;;;;;;;;;;;;;;;10.60;100.00;100053.78;5075419;28;20027;-76
2021/11/24 01:24:52;;;;;;;;;;;;;;;10.29;100.00;100057.34;5075477;28;19924;-76
2021/11/24 01:27:21;;;;;;;;;;;;;;;9.93;100.00;100058.47;5041379;28;19935;-76
2021/11/24 01:29:48;;;;;;;;;;;;;;;10.36;100.00;100046.97;5075318;28;19967;-76
2021/11/24 01:32:14;;;;;;;;;;;;;;;9.55;100.00;100047.97;5075264;28;19978;-76
2021/11/24 01:34:42;;;;;;;;;;;;;;;9.14;100.00;100056.56;5075024;28;19924;-76
2021/11/24 01:37:08;;;;;;;;;;;;;;;9.99;100.00;100045.72;5057227;28;19928;-76
2021/11/24 01:39:35;;;;;;;;;;;;;;;10.41;100.00;100029.00;5075274;28;20329;-77
2021/11/24 01:42:03;;;;;;;;;;;;;;;10.42;100.00;100025.81;5057050;28;20368;-76
2021/11/24 01:44:30;;;;;;;;;;;;;;;10.43;100.00;100021.03;5075044;28;19928;-76
2021/11/24 01:46:59;;;;;;;;;;;;;;;10.12;100.00;100039.38;5075069;28;19924;-76
2021/11/24 01:49:28;;;;;;;;;;;;;;;9.51;100.00;100039.59;5078207;28;19924;-76
2021/11/24 01:51:58;;;;;;;;;;;;;;;10.23;100.00;100034.59;5075135;28;19932;-76
2021/11/24 01:54:26;;;;;;;;;;;;;;;9.85;100.00;100028.91;5075137;28;19931;-76
2021/11/24 01:56:54;;;;;;;;;;;;;;;10.06;100.00;100023.38;5057045;28;19946;-76
2021/11/24 01:59:21;;;;;;;;;;;;;;;10.01;100.00;100027.34;5074170;28;19928;-76
2021/11/24 02:01:49;;;;;;;;;;;;;;;9.97;100.00;100031.34;5056932;28;19924;-76
2021/11/24 02:04:17;;;;;;;;;;;;;;;10.17;100.00;100005.47;5074460;28;20023;-76
2021/11/24 02:06:44;;;;;;;;;;;;;;;10.06;100.00;100012.19;5056979;28;19935;-76
2021/11/24 02:09:12;;;;;;;;;;;;;;;9.41;100.00;100014.44;5074559;28;19932;-76
2021/11/24 02:11:40;;;;;;;;;;;;;;;9.72;100.00;100010.97;5074532;28;19931;-76
2021/11/24 02:14:10;;;;;;;;;;;;;;;9.90;100.00;100006.22;5074435;28;20001;-76
2021/11/24 02:16:46;;;;;;;;;;;;;;;10.14;100.00;99985.91;5074520;28;20287;-76
2021/11/24 02:19:14;;;;;;;;;;;;;;;10.09;100.00;99994.69;5073983;28;19931;-76
2021/11/24 02:21:45;;;;;;;;;;;;;;;10.09;100.00;99989.09;5074676;28;19928;-76
2021/11/24 02:24:12;;;;;;;;;;;;;;;10.27;100.00;99981.53;5056624;28;20027;-76
2021/11/24 02:26:40;;;;;;;;;;;;;;;9.64;100.00;99985.03;5056536;28;19947;-76
2021/11/24 02:29:07;;;;;;;;;;;;;;;9.95;100.00;99977.91;5072861;28;19925;-76
2021/11/24 02:31:34;;;;;;;;;;;;;;;10.12;100.00;99977.13;5056333;28;19950;-76
2021/11/24 02:34:01;;;;;;;;;;;;;;;9.60;100.00;99978.66;5073784;28;20027;-76
2021/11/24 02:36:29;;;;;;;;;;;;;;;9.88;100.00;99975.09;5074043;28;19925;-76
2021/11/24 02:38:59;;;;;;;;;;;;;;;9.92;100.00;99967.53;5073861;28;19932;-76
2021/11/24 02:41:29;;;;;;;;;;;;;;;9.97;100.00;99962.34;5089545;28;19925;-76
2021/11/24 02:44:12;;;;;;;;;;;;;;;10.14;100.00;99963.56;5073657;28;19932;-76
2021/11/24 02:46:39;;;;;;;;;;;;;;;9.68;100.00;99965.50;5073390;28;20361;-76
2021/11/24 02:49:06;;;;;;;;;;;;;;;10.05;100.00;99966.75;5073563;28;20410;-76
2021/11/24 02:51:34;;;;;;;;;;;;;;;9.80;100.00;99960.31;5074072;28;19929;-76
2021/11/24 02:54:01;;;;;;;;;;;;;;;10.37;100.00;99941.63;5073678;28;19924;-76
2021/11/24 02:56:28;;;;;;;;;;;;;;;9.79;100.00;99943.97;5055807;28;19924;-76
2021/11/24 02:58:55;;;;;;;;;;;;;;;9.99;100.00;99951.59;5055699;28;19924;-76
2021/11/24 03:01:22;;;;;;;;;;;;;;;9.94;100.00;99948.38;5072933;28;19924;-77
2021/11/24 03:03:49;;;;;;;;;;;;;;;9.51;100.00;99952.31;5073254;28;19928;-76
2021/11/24 03:06:17;;;;;;;;;;;;;;;9.45;100.00;99943.50;5073485;28;19931;-76
2021/11/24 03:08:45;;;;;;;;;;;;;;;9.90;100.00;99942.00;5073300;28;19925;-76
2021/11/24 03:11:12;;;;;;;;;;;;;;;9.36;100.00;99945.09;5072644;28;19925;-76
2021/11/24 03:13:38;;;;;;;;;;;;;;;9.35;100.00;99935.13;5055610;28;19974;-76
2021/11/24 03:16:06;;;;;;;;;;;;;;;9.72;100.00;99921.66;5055180;28;19931;-77
2021/11/24 03:18:33;;;;;;;;;;;;;;;9.80;100.00;99928.84;5073150;28;20019;-76
2021/11/24 03:21:00;;;;;;;;;;;;;;;9.95;100.00;99913.69;5055300;28;20349;-76
2021/11/24 03:23:27;;;;;;;;;;;;;;;9.67;100.00;99922.03;5073166;28;20379;-76
2021/11/24 03:25:54;;;;;;;;;;;;;;;9.66;100.00;99909.28;5073231;28;19932;-76
2021/11/24 03:28:21;;;;;;;;;;;;;;;9.72;100.00;99916.06;5055349;28;19939;-76
2021/11/24 03:30:48;;;;;;;;;;;;;;;9.32;100.00;99921.97;5054801;28;19991;-76
2021/11/24 03:33:16;;;;;;;;;;;;;;;9.30;100.00;99929.94;5087155;28;20367;-76
2021/11/24 03:35:45;;;;;;;;;;;;;;;9.07;100.00;99922.69;5071845;28;20375;-76
2021/11/24 03:38:12;;;;;;;;;;;;;;;9.26;100.00;99918.78;5072876;28;20017;-76
2021/11/24 03:40:39;;;;;;;;;;;;;;;9.27;100.00;99922.38;5072973;28;19931;-76
2021/11/24 03:43:06;;;;;;;;;;;;;;;9.45;100.00;99912.81;5072885;28;20398;-76
2021/11/24 03:45:34;;;;;;;;;;;;;;;9.52;100.00;99906.47;5072514;28;19932;-76
2021/11/24 03:48:02;;;;;;;;;;;;;;;8.87;100.00;99904.72;5072913;28;20356;-76
2021/11/24 03:50:29;;;;;;;;;;;;;;;9.61;100.00;99892.94;5072884;28;20379;-76
2021/11/24 03:52:56;;;;;;;;;;;;;;;9.55;100.00;99886.16;5088586;28;19924;-76
2021/11/24 03:55:24;;;;;;;;;;;;;;;9.78;100.00;99881.78;5072829;28;19924;-76
2021/11/24 03:57:51;;;;;;;;;;;;;;;9.71;100.00;99872.63;5088239;28;20018;-76
2021/11/24 04:00:21;;;;;;;;;;;;;;;9.76;100.00;99873.00;5072398;28;20407;-76
2021/11/24 04:02:48;;;;;;;;;;;;;;;8.97;100.00;99867.72;5072863;28;19932;-76
2021/11/24 04:05:15;;;;;;;;;;;;;;;8.96;100.00;99859.75;5055260;28;19974;-76
2021/11/24 04:07:42;;;;;;;;;;;;;;;9.05;100.00;99863.75;5055114;28;19964;-76
2021/11/24 04:10:11;;;;;;;;;;;;;;;8.79;100.00;99855.72;5072667;28;19939;-76
2021/11/24 04:12:38;;;;;;;;;;;;;;;8.71;100.00;99854.06;5054813;28;19928;-76
2021/11/24 04:15:06;;;;;;;;;;;;;;;9.01;100.00;99851.00;5071361;28;19928;-76
2021/11/24 04:17:39;;;;;;;;;;;;;;;9.07;100.00;99841.84;5055856;28;20016;-76
2021/11/24 04:20:07;;;;;;;;;;;;;;;9.72;100.00;99837.94;5072470;28;19924;-76
2021/11/24 04:22:35;;;;;;;;;;;;;;;9.45;100.00;99842.31;5055309;28;19956;-76
2021/11/24 04:25:03;;;;;;;;;;;;;;;9.18;100.00;99842.66;5076620;28;19924;-76
2021/11/24 04:27:30;;;;;;;;;;;;;;;9.60;100.00;99843.91;5058911;28;19924;-76
2021/11/24 04:29:57;;;;;;;;;;;;;;;9.64;100.00;99827.97;5074949;28;19931;-76
2021/11/24 04:32:24;;;;;;;;;;;;;;;9.74;100.00;99825.16;5058557;28;19928;-76
2021/11/24 04:34:52;;;;;;;;;;;;;;;9.31;100.00;99814.41;5076243;28;20296;-76
2021/11/24 04:37:19;;;;;;;;;;;;;;;9.80;100.00;99803.25;5076682;28;19928;-76
2021/11/24 04:39:46;;;;;;;;;;;;;;;9.57;100.00;99805.66;5058669;28;19931;-76
2021/11/24 04:42:13;;;;;;;;;;;;;;;9.58;100.00;99801.66;5076156;28;19925;-76
2021/11/24 04:44:40;;;;;;;;;;;;;;;9.62;100.00;99802.47;5091462;28;19924;-76
2021/11/24 04:47:07;;;;;;;;;;;;;;;9.67;100.00;99799.25;5076193;28;19931;-76
2021/11/24 04:49:35;;;;;;;;;;;;;;;9.54;100.00;99796.09;5058322;28;19932;-76
2021/11/24 04:52:03;;;;;;;;;;;;;;;9.87;100.00;99789.28;5075949;28;19924;-76
2021/11/24 04:54:30;;;;;;;;;;;;;;;9.60;100.00;99782.53;5076097;28;19931;-76
2021/11/24 04:56:57;;;;;;;;;;;;;;;9.60;100.00;99782.53;5091514;28;19924;-76
2021/11/24 04:59:24;;;;;;;;;;;;;;;9.43;100.00;99778.56;5041187;28;19924;-76
2021/11/24 05:01:51;;;;;;;;;;;;;;;9.70;100.00;99776.94;5075931;28;19972;-76
2021/11/24 05:04:21;;;;;;;;;;;;;;;9.66;100.00;99764.19;5058158;28;19975;-76
2021/11/24 05:06:49;;;;;;;;;;;;;;;9.42;100.00;99765.00;5058271;28;20062;-76
2021/11/24 05:09:16;;;;;;;;;;;;;;;9.71;100.00;99767.34;5075845;28;19924;-76
2021/11/24 05:11:43;;;;;;;;;;;;;;;9.64;100.00;99755.41;5074318;28;19928;-76
2021/11/24 05:14:16;;;;;;;;;;;;;;;9.52;100.00;99755.81;5057851;28;19932;-76
2021/11/24 05:17:32;;;;;;;;;;;;;;;9.32;100.00;99754.63;5067493;28;20279;-76
2021/11/24 05:20:00;;;;;;;;;;;;;;;9.19;100.00;99746.66;5075474;28;19924;-76
2021/11/24 05:22:28;;;;;;;;;;;;;;;9.13;100.00;99753.84;5058148;28;19924;-76
2021/11/24 05:24:55;;;;;;;;;;;;;;;9.06;100.00;99765.00;5075657;28;19924;-76
2021/11/24 05:27:22;;;;;;;;;;;;;;;8.80;100.00;99751.41;5075267;28;19928;-76
2021/11/24 05:29:49;;;;;;;;;;;;;;;9.32;100.00;99751.84;5075317;28;19925;-76
2021/11/24 05:32:16;;;;;;;;;;;;;;;9.37;100.00;99748.66;5075352;28;19924;-76
2021/11/24 05:34:44;;;;;;;;;;;;;;;9.10;100.00;99743.47;5056413;28;19925;-76
2021/11/24 05:37:11;;;;;;;;;;;;;;;9.49;100.00;99745.47;5075310;28;19932;-76
2021/11/24 05:39:39;;;;;;;;;;;;;;;9.83;100.00;99741.03;5057486;28;19948;-77
2021/11/24 05:42:08;;;;;;;;;;;;;;;9.69;100.00;99741.06;5074867;28;20062;-76
2021/11/24 05:44:37;;;;;;;;;;;;;;;9.41;100.00;99735.50;5074815;28;19924;-76
2021/11/24 05:47:11;;;;;;;;;;;;;;;9.31;100.00;99723.19;5075075;28;19935;-76
2021/11/24 05:49:40;;;;;;;;;;;;;;;9.86;100.00;99726.28;5075053;28;20383;-76
2021/11/24 05:52:08;;;;;;;;;;;;;;;10.14;100.00;99727.00;5057210;28;19929;-76
2021/11/24 05:54:35;;;;;;;;;;;;;;;10.00;100.00;99713.06;5074961;28;19924;-76
2021/11/24 05:57:02;;;;;;;;;;;;;;;10.11;100.00;99707.47;5040369;28;19935;-76
2021/11/24 05:59:32;;;;;;;;;;;;;;;10.01;100.00;99702.69;5074800;28;20308;-76
2021/11/24 06:01:59;;;;;;;;;;;;;;;10.50;100.00;99697.69;5090379;28;19924;-76
2021/11/24 06:04:26;;;;;;;;;;;;;;;9.95;100.00;99691.13;5057107;28;20424;-76
2021/11/24 06:06:53;;;;;;;;;;;;;;;9.83;100.00;99702.75;5056800;28;19932;-76
2021/11/24 06:09:20;;;;;;;;;;;;;;;10.05;100.00;99692.31;5056695;28;19963;-76
2021/11/24 06:11:47;;;;;;;;;;;;;;;10.01;100.00;99697.13;5090038;28;19925;-76
2021/11/24 06:14:14;;;;;;;;;;;;;;;10.00;100.00;99687.94;5075068;28;19932;-76
2021/11/24 06:16:41;;;;;;;;;;;;;;;10.22;100.00;99699.84;5089964;28;20437;-76
2021/11/24 06:19:08;;;;;;;;;;;;;;;10.30;100.00;99693.03;5074303;28;20387;-76
2021/11/24 06:21:35;;;;;;;;;;;;;;;10.38;100.00;99705.75;5074351;28;19970;-76
2021/11/24 06:24:03;;;;;;;;;;;;;;;10.41;100.00;99702.13;5074350;28;19928;-76
2021/11/24 06:26:30;;;;;;;;;;;;;;;9.96;100.00;99689.16;5074039;28;20150;-77
2021/11/24 06:28:57;;;;;;;;;;;;;;;9.92;100.00;99688.38;5083427;28;19931;-77
2021/11/24 06:31:26;;;;;;;;;;;;;;;9.78;100.00;99682.84;5093786;28;19978;-76
2021/11/24 06:33:56;;;;;;;;;;;;;;;10.17;100.00;99686.28;5076265;28;19927;-76
2021/11/24 06:36:25;;;;;;;;;;;;;;;10.01;100.00;99672.00;5094378;28;19924;-76
2021/11/24 06:38:52;;;;;;;;;;;;;;;9.62;100.00;99686.06;5094207;28;19981;-76
2021/11/24 06:41:20;;;;;;;;;;;;;;;9.97;100.00;99685.16;5056079;28;20042;-74
2021/11/24 06:43:48;;;;;;;;;;;;;;;10.12;100.00;99681.94;5071837;28;19946;-77
2021/11/24 06:46:15;;;;;;;;;;;;;;;10.03;100.00;99683.53;5039089;28;20372;-77
2021/11/24 06:48:42;;;;;;;;;;;;;;;10.16;100.00;99670.75;5073446;28;19928;-77
2021/11/24 06:51:10;;;;;;;;;;;;;;;10.35;100.00;99678.63;5073789;28;19932;-76
2021/11/24 06:53:37;;;;;;;;;;;;;;;10.57;100.00;99669.72;5073445;28;19929;-77
2021/11/24 06:56:05;;;;;;;;;;;;;;;10.27;100.00;99665.91;5073940;28;20327;-76
2021/11/24 06:58:32;;;;;;;;;;;;;;;10.21;100.00;99662.75;5055726;28;19924;-77
2021/11/24 07:01:00;;;;;;;;;;;;;;;10.22;100.00;99652.38;5073597;28;19924;-77
2021/11/24 07:03:31;;;;;;;;;;;;;;;9.98;100.00;99642.88;5042034;28;20280;-76
2021/11/24 07:05:59;;;;;;;;;;;;;;;10.57;100.00;99641.75;5076642;28;19924;-78
2021/11/24 07:08:27;;;;;;;;;;;;;;;10.45;100.00;99630.28;5059119;28;19924;-77
2021/11/24 07:10:53;;;;;;;;;;;;;;;10.31;100.00;99633.16;5094413;28;19955;-77
2021/11/24 07:13:20;;;;;;;;;;;;;;;10.16;100.00;99635.22;5094460;28;20015;-76
2021/11/24 07:15:47;;;;;;;;;;;;;;;9.96;100.00;99630.53;5076198;28;19958;-76
2021/11/24 07:18:15;;;;;;;;;;;;;;;10.26;100.00;99637.19;5075542;28;19924;-76
2021/11/24 07:20:42;;;;;;;;;;;;;;;9.94;100.00;99624.53;5093397;28;20329;-76
2021/11/24 07:23:09;;;;;;;;;;;;;;;10.12;100.00;99631.66;5093221;28;19925;-77
2021/11/24 07:25:36;;;;;;;;;;;;;;;10.28;100.00;99628.41;5092357;28;20333;-76
2021/11/24 07:28:03;;;;;;;;;;;;;;;10.22;100.00;99622.44;5093337;28;20332;-77
2021/11/24 07:30:30;;;;;;;;;;;;;;;10.54;100.00;99625.03;5093612;28;20290;-77
2021/11/24 07:32:57;;;;;;;;;;;;;;;10.47;100.00;99619.47;5093390;28;19931;-77
2021/11/24 07:35:26;;;;;;;;;;;;;;;10.60;100.00;99617.81;5075359;28;19924;-76
2021/11/24 07:37:53;;;;;;;;;;;;;;;10.10;100.00;99599.78;5075144;28;19924;-77
2021/11/24 07:40:22;;;;;;;;;;;;;;;10.12;100.00;99603.75;5075194;28;19924;-76
2021/11/24 07:42:50;;;;;;;;;;;;;;;10.18;100.00;99610.50;5091939;28;19924;-77
2021/11/24 07:45:18;;;;;;;;;;;;;;;10.07;100.00;99601.38;5093067;28;19924;-76
2021/11/24 07:47:45;;;;;;;;;;;;;;;10.25;100.00;99599.25;5093181;28;19924;-76
2021/11/24 07:50:12;;;;;;;;;;;;;;;9.88;100.00;99592.66;5093076;28;19928;-77
2021/11/24 07:52:39;;;;;;;;;;;;;;;9.98;100.00;99598.19;5092931;28;20015;-76
2021/11/24 07:55:06;;;;;;;;;;;;;;;9.73;100.00;99585.56;5075122;28;20375;-76
2021/11/24 07:57:33;;;;;;;;;;;;;;;9.60;100.00;99587.22;5092670;28;19928;-76
2021/11/24 08:00:01;;;;;;;;;;;;;;;10.18;100.00;99590.94;5074824;28;19924;-76
2021/11/24 08:02:37;;;;;;;;;;;;;;;9.90;100.00;99581.91;5058190;28;19924;-76
2021/11/24 08:05:05;;;;;;;;;;;;;;;9.73;100.00;99577.19;5074785;28;20397;-77
2021/11/24 08:07:40;;;;;;;;;;;;;;;10.07;100.00;99578.25;5092993;28;19924;-76
2021/11/24 08:10:10;;;;;;;;;;;;;;;10.10;100.00;99571.84;5074883;28;19924;-76
2021/11/24 08:12:37;;;;;;;;;;;;;;;10.24;100.00;99566.16;5092909;28;20298;-77
2021/11/24 08:15:05;;;;;;;;;;;;;;;9.87;100.00;99577.94;5092874;28;20390;-77
2021/11/24 08:17:32;;;;;;;;;;;;;;;9.74;100.00;99576.00;5092833;28;19925;-76
2021/11/24 08:20:00;;;;;;;;;;;;;;;9.54;100.00;99574.91;5092691;28;19942;-77
2021/11/24 08:22:29;;;;;;;;;;;;;;;9.96;100.00;99574.69;5074797;28;19931;-78
2021/11/24 08:24:56;;;;;;;;;;;;;;;10.38;100.00;99566.06;5074793;28;19924;-77
2021/11/24 08:27:23;;;;;;;;;;;;;;;9.80;100.00;99560.44;5092700;28;19924;-79
2021/11/24 08:29:50;;;;;;;;;;;;;;;10.08;100.00;99563.09;5074774;28;20014;-77
2021/11/24 08:32:17;;;;;;;;;;;;;;;9.96;100.00;99560.75;5092772;28;19931;-77
2021/11/24 08:34:45;;;;;;;;;;;;;;;10.09;100.00;99556.28;5092681;28;19928;-77
2021/11/24 08:37:12;;;;;;;;;;;;;;;10.22;100.00;99551.84;5073681;28;19931;-77
2021/11/24 08:39:41;;;;;;;;;;;;;;;9.76;100.00;99560.44;5074655;28;19924;-77
2021/11/24 08:42:11;;;;;;;;;;;;;;;10.23;100.00;99559.00;5074518;28;19982;-77
2021/11/24 08:44:41;;;;;;;;;;;;;;;10.11;100.00;99551.91;5092290;28;19924;-77
2021/11/24 08:47:08;;;;;;;;;;;;;;;9.78;100.00;99560.03;5091671;28;19924;-77
2021/11/24 08:49:35;;;;;;;;;;;;;;;9.76;100.00;99560.44;5057353;28;19924;-77
2021/11/24 08:52:03;;;;;;;;;;;;;;;10.36;100.00;99562.91;5073631;28;19925;-77
2021/11/24 08:54:32;;;;;;;;;;;;;;;10.54;100.00;99557.97;5071599;28;19924;-77
2021/11/24 08:56:59;;;;;;;;;;;;;;;10.65;100.00;99553.06;5072255;28;19970;-77
2021/11/24 08:59:26;;;;;;;;;;;;;;;10.52;100.00;99549.22;5072117;28;19931;-77
2021/11/24 09:01:55;;;;;;;;;;;;;;;10.79;100.00;99538.97;5072177;28;19929;-77
2021/11/24 09:04:23;;;;;;;;;;;;;;;10.54;100.00;99530.81;5071763;28;19931;-77
2021/11/24 09:06:50;;;;;;;;;;;;;;;10.48;100.00;99524.09;5072124;28;19947;-77
2021/11/24 09:09:18;;;;;;;;;;;;;;;10.83;100.00;99522.97;5072117;28;20019;-77
2021/11/24 09:11:45;;;;;;;;;;;;;;;11.27;100.00;99531.28;5057724;28;20379;-77
2021/11/24 09:14:12;;;;;;;;;;;;;;;11.05;100.00;99518.75;5075550;28;19925;-77
2021/11/24 09:16:44;;;;;;;;;;;;;;;10.12;100.00;99524.75;5075537;28;20151;-77
2021/11/24 09:19:11;;;;;;;;;;;;;;;10.28;100.00;99517.47;5075573;28;19968;-77
2021/11/24 09:21:38;;;;;;;;;;;;;;;11.10;100.00;99517.50;5040926;28;19951;-77
2021/11/24 09:24:11;;;;;;;;;;;;;;;10.68;100.00;99507.53;5075634;28;19924;-78
2021/11/24 09:26:55;;;;;;;;;;;;;;;10.80;100.00;99510.63;5075549;28;19932;-77
2021/11/24 09:29:22;;;;;;;;;;;;;;;10.97;100.00;99503.25;5075420;28;19925;-77
2021/11/24 09:31:49;;;;;;;;;;;;;;;10.97;100.00;99492.06;5075380;28;19956;-77
2021/11/24 09:34:41;;;;;;;;;;;;;;;10.66;100.00;99487.63;5057206;28;20019;-77
2021/11/24 09:37:08;;;;;;;;;;;;;;;10.34;100.00;99485.13;5041108;28;19935;-77
2021/11/24 09:39:36;;;;;;;;;;;;;;;10.68;100.00;99479.59;5075193;28;20038;-77
2021/11/24 09:42:04;;;;;;;;;;;;;;;10.49;100.00;99481.00;5075151;28;19924;-77
2021/11/24 09:44:31;;;;;;;;;;;;;;;10.89;100.00;99479.38;5074997;28;19925;-80
2021/11/24 09:46:59;;;;;;;;;;;;;;;10.85;100.00;99479.44;5090616;28;20419;-77
2021/11/24 09:49:27;;;;;;;;;;;;;;;10.21;100.00;99484.00;5056818;28;20301;-77
2021/11/24 09:52:03;;;;;;;;;;;;;;;10.70;100.00;99482.78;5075332;28;19924;-77
2021/11/24 09:54:31;;;;;;;;;;;;;;;10.78;100.00;99478.72;5057116;28;19924;-78
2021/11/24 09:56:58;;;;;;;;;;;;;;;10.94;100.00;99478.94;5074805;28;19924;-77
2021/11/24 09:59:25;;;;;;;;;;;;;;;10.63;100.00;99471.69;5074759;28;19929;-77
2021/11/24 10:01:53;;;;;;;;;;;;;;;10.34;100.00;99464.75;5074754;28;19925;-77
2021/11/24 10:04:21;;;;;;;;;;;;;;;10.79;100.00;99458.72;5074679;28;19932;-77
2021/11/24 10:06:49;;;;;;;;;;;;;;;10.85;100.00;99459.06;5074618;28;19935;-77
2021/11/24 10:09:15;;;;;;;;;;;;;;;10.74;100.00;99450.78;5074586;28;19967;-77
2021/11/24 10:11:43;;;;;;;;;;;;;;;11.11;100.00;99458.38;5074584;28;19928;-77
2021/11/24 10:14:10;;;;;;;;;;;;;;;11.15;100.00;99453.50;5056816;28;19925;-77
2021/11/24 10:16:37;;;;;;;;;;;;;;;11.32;100.00;99446.91;5074274;28;19924;-77
2021/11/24 10:19:05;;;;;;;;;;;;;;;10.80;100.00;99439.94;5056728;28;20391;-77
2021/11/24 10:21:32;;;;;;;;;;;;;;;11.02;100.00;99440.50;5073982;28;19925;-77
2021/11/24 10:24:05;;;;;;;;;;;;;;;11.15;100.00;99436.72;5056608;28;19929;-77
2021/11/24 10:26:35;;;;;;;;;;;;;;;10.71;100.00;99445.22;5089869;28;19931;-77
2021/11/24 10:29:05;;;;;;;;;;;;;;;10.47;100.00;99446.28;5068331;28;19924;-77
2021/11/24 10:31:41;;;;;;;;;;;;;;;10.00;100.00;99449.84;5093038;28;20015;-77
2021/11/24 10:34:14;;;;;;;;;;;;;;;9.78;100.00;99451.19;5094288;28;19931;-77
2021/11/24 10:36:52;;;;;;;;;;;;;;;9.72;100.00;99442.47;5076123;28;19928;-76
2021/11/24 10:39:20;;;;;;;;;;;;;;;9.87;100.00;99440.38;5094307;28;19928;-77
2021/11/24 10:41:49;;;;;;;;;;;;;;;9.98;100.00;99444.66;5094066;28;20011;-77
2021/11/24 10:44:24;;;;;;;;;;;;;;;10.01;100.00;99443.06;5094139;28;20393;-77
2021/11/24 10:46:53;;;;;;;;;;;;;;;10.43;100.00;99439.94;5075967;28;19925;-77
2021/11/24 10:49:29;;;;;;;;;;;;;;;9.74;100.00;99430.91;5094345;28;20271;-78
2021/11/24 10:51:56;;;;;;;;;;;;;;;9.94;100.00;99434.72;5060174;28;20302;-77
2021/11/24 10:54:22;;;;;;;;;;;;;;;9.62;100.00;99429.38;5076876;28;19963;-76
2021/11/24 10:57:08;;;;;;;;;;;;;;;9.57;100.00;99420.66;5094885;28;20029;-77
2021/11/24 10:59:40;;;;;;;;;;;;;;;10.24;100.00;99410.56;5076507;28;19924;-77
2021/11/24 11:02:21;;;;;;;;;;;;;;;10.52;100.00;99415.09;5094493;28;19924;-77
2021/11/24 11:04:59;;;;;;;;;;;;;;;10.84;100.00;99413.53;5094877;28;19946;-77
2021/11/24 11:07:27;;;;;;;;;;;;;;;11.19;100.00;99401.13;5076544;28;19924;-77
2021/11/24 11:10:05;;;;;;;;;;;;;;;10.62;100.00;99406.59;5094594;28;20018;-76
2021/11/24 11:12:33;;;;;;;;;;;;;;;10.67;100.00;99399.75;5094502;28;20019;-77
2021/11/24 11:15:16;;;;;;;;;;;;;;;10.19;100.00;99390.69;5075843;28;20375;-76
2021/11/24 11:18:05;;;;;;;;;;;;;;;10.47;100.00;99379.22;5078214;28;19924;-77
2021/11/24 11:20:33;;;;;;;;;;;;;;;10.67;100.00;99366.22;5076377;28;19973;-77
2021/11/24 11:23:03;;;;;;;;;;;;;;;11.00;100.00;99371.00;5076434;28;19924;-77
2021/11/24 11:25:34;;;;;;;;;;;;;;;11.26;100.00;99363.88;5076168;28;19989;-77
2021/11/24 11:28:02;;;;;;;;;;;;;;;11.47;100.00;99364.34;5076169;28;20275;-78
2021/11/24 11:30:29;;;;;;;;;;;;;;;11.58;100.00;99365.00;5094008;28;19931;-77
2021/11/24 11:32:56;;;;;;;;;;;;;;;11.72;100.00;99352.81;5093421;28;20019;-78
2021/11/24 11:35:24;;;;;;;;;;;;;;;11.60;100.00;99340.16;5094223;28;20011;-78
2021/11/24 11:37:57;;;;;;;;;;;;;;;11.00;100.00;99334.66;5076197;28;19924;-78
2021/11/24 11:40:25;;;;;;;;;;;;;;;11.29;100.00;99329.47;5092538;28;19931;-78
2021/11/24 11:42:56;;;;;;;;;;;;;;;11.31;100.00;99315.84;5093978;28;19932;-78
2021/11/24 11:45:43;;;;;;;;;;;;;;;11.89;100.00;99302.13;5093481;28;20295;-78
2021/11/24 11:48:28;;;;;;;;;;;;;;;12.05;100.00;99299.44;5093949;28;19925;-78
2021/11/24 11:51:00;;;;;;;;;;;;;;;11.71;100.00;99298.84;5093996;28;19924;-78
2021/11/24 11:53:27;;;;;;;;;;;;;;;11.44;100.00;99292.47;5075472;28;19924;-78
2021/11/24 11:56:13;;;;;;;;;;;;;;;11.66;100.00;99293.72;5093940;28;19931;-78
2021/11/24 11:58:51;;;;;;;;;;;;;;;11.32;100.00;99295.84;5093502;28;19924;-78
2021/11/24 12:01:20;;;;;;;;;;;;;;;11.64;100.00;99287.78;5093855;28;19990;-78
2021/11/24 12:04:07;;;;;;;;;;;;;;;11.86;100.00;99283.38;5075983;28;19924;-78
2021/11/24 12:06:57;;;;;;;;;;;;;;;11.70;100.00;99279.66;5075937;28;20408;-78
2021/11/24 12:09:25;;;;;;;;;;;;;;;11.74;100.00;99278.38;5070668;28;20081;-78
2021/11/24 12:11:58;;;;;;;;;;;;;;;12.16;100.00;99280.41;5093811;28;19931;-78
2021/11/24 12:14:44;;;;;;;;;;;;;;;12.52;100.00;99277.72;5075384;28;20306;-78
2021/11/24 12:20:16;;;;;;;;;;;;;;;12.06;100.00;99266.63;5093580;28;19927;-78
2021/11/24 12:22:53;;;;;;;;;;;;;;;11.30;100.00;99253.50;5093740;28;19928;-77
2021/11/24 12:25:24;;;;;;;;;;;;;;;10.57;100.00;99260.97;5093662;28;19928;-78
2021/11/24 12:33:08;;;;;;;;;;;;;;;10.35;100.00;99257.66;5093795;28;19925;-78
2021/11/24 12:35:37;;;;;;;;;;;;;;;10.40;100.00;99251.63;5076518;28;20314;-78
2021/11/24 12:38:29;;;;;;;;;;;;;;;11.46;100.00;99248.06;5075109;28;19978;-79
2021/11/24 12:40:57;;;;;;;;;;;;;;;11.96;100.00;99246.00;5072617;28;19932;-79
2021/11/24 12:43:25;;;;;;;;;;;;;;;11.70;100.00;99248.88;5090493;28;19931;-79
2021/11/24 12:46:01;;;;;;;;;;;;;;;11.97;100.00;99241.97;5076379;28;19924;-79
2021/11/24 12:48:38;;;;;;;;;;;;;;;12.02;100.00;99227.50;5076515;28;19985;-79
2021/11/24 12:51:08;;;;;;;;;;;;;;;11.99;100.00;99236.75;5076572;28;19955;-79
2021/11/24 12:53:37;;;;;;;;;;;;;;;11.62;100.00;99225.81;5096399;28;19928;-79
2021/11/24 12:56:17;;;;;;;;;;;;;;;11.59;100.00;99225.84;5077946;28;19977;-79